sensor_id;sensor_type;location;lat;lon;timestamp;pressure;altitude;pressure_sealevel;temperature;humidity
10079;BME280;5078;42.544;22.966;2024-02-16T00:01:06;94468.06;;;1.11;70.07
10079;BME280;5078;42.544;22.966;2024-02-16T00:03:32;94464.72;;;1.10;70.10
10079;BME280;5078;42.544;22.966;2024-02-16T00:06:00;94470.84;;;1.03;70.81
10079;BME280;5078;42.544;22.966;2024-02-16T00:08:26;94468.56;;;1.26;68.96
10079;BME280;5078;42.544;22.966;2024-02-16T00:10:53;94469.56;;;1.25;68.62
10079;BME280;5078;42.544;22.966;2024-02-16T00:13:20;94478.72;;;0.94;69.36
10079;BME280;5078;42.544;22.966;2024-02-16T00:15:48;94473.66;;;0.75;69.43
10079;BME280;5078;42.544;22.966;2024-02-16T00:18:15;94483.13;;;0.61;70.45
10079;BME280;5078;42.544;22.966;2024-02-16T00:20:42;94479.19;;;0.65;70.46
10079;BME280;5078;42.544;22.966;2024-02-16T00:23:08;94478.59;;;0.63;70.58
10079;BME280;5078;42.544;22.966;2024-02-16T00:25:36;94473.47;;;0.63;71.00
10079;BME280;5078;42.544;22.966;2024-02-16T00:28:03;94480.41;;;0.30;71.81
10079;BME280;5078;42.544;22.966;2024-02-16T00:30:30;94480.97;;;0.58;70.88
10079;BME280;5078;42.544;22.966;2024-02-16T00:32:58;94484.09;;;0.60;70.69
10079;BME280;5078;42.544;22.966;2024-02-16T00:35:26;94483.72;;;0.50;70.91
10079;BME280;5078;42.544;22.966;2024-02-16T00:37:52;94484.16;;;0.40;71.20
10079;BME280;5078;42.544;22.966;2024-02-16T00:40:19;94483.16;;;0.48;71.36
10079;BME280;5078;42.544;22.966;2024-02-16T00:42:46;94476.03;;;0.63;71.05
10079;BME280;5078;42.544;22.966;2024-02-16T00:45:12;94480.38;;;0.63;70.84
10079;BME280;5078;42.544;22.966;2024-02-16T00:47:39;94477.19;;;0.80;71.27
10079;BME280;5078;42.544;22.966;2024-02-16T00:50:08;94474.03;;;0.85;70.93
10079;BME280;5078;42.544;22.966;2024-02-16T00:52:35;94474.03;;;0.78;71.02
10079;BME280;5078;42.544;22.966;2024-02-16T00:55:02;94478.13;;;0.99;70.51
10079;BME280;5078;42.544;22.966;2024-02-16T00:57:30;94470.25;;;1.07;69.67
10079;BME280;5078;42.544;22.966;2024-02-16T00:59:56;94473.97;;;1.05;69.86
10079;BME280;5078;42.544;22.966;2024-02-16T01:02:23;94475.16;;;1.02;69.68
10079;BME280;5078;42.544;22.966;2024-02-16T01:04:50;94474.31;;;1.15;69.41
10079;BME280;5078;42.544;22.966;2024-02-16T01:07:18;94482.59;;;1.10;68.64
10079;BME280;5078;42.544;22.966;2024-02-16T01:09:45;94472.78;;;1.07;68.91
10079;BME280;5078;42.544;22.966;2024-02-16T01:12:11;94477.47;;;1.10;68.53
10079;BME280;5078;42.544;22.966;2024-02-16T01:14:38;94483.94;;;0.55;69.17
10079;BME280;5078;42.544;22.966;2024-02-16T01:17:05;94486.31;;;0.11;71.39
10079;BME280;5078;42.544;22.966;2024-02-16T01:19:31;94484.53;;;0.11;71.71
10079;BME280;5078;42.544;22.966;2024-02-16T01:21:58;94477.09;;;0.03;71.61
10079;BME280;5078;42.544;22.966;2024-02-16T01:24:27;94492.38;;;0.10;71.96
10079;BME280;5078;42.544;22.966;2024-02-16T01:26:53;94476.88;;;-0.28;72.52
10079;BME280;5078;42.544;22.966;2024-02-16T01:29:20;94484.94;;;0.15;71.88
10079;BME280;5078;42.544;22.966;2024-02-16T01:31:47;94484.13;;;0.34;71.23
10079;BME280;5078;42.544;22.966;2024-02-16T01:34:13;94479.84;;;0.21;71.81
10079;BME280;5078;42.544;22.966;2024-02-16T01:36:40;94483.94;;;0.22;71.56
10079;BME280;5078;42.544;22.966;2024-02-16T01:39:07;94492.38;;;0.16;71.59
10079;BME280;5078;42.544;22.966;2024-02-16T01:41:38;94482.00;;;0.24;72.19
10079;BME280;5078;42.544;22.966;2024-02-16T01:44:05;94484.72;;;0.42;71.54
10079;BME280;5078;42.544;22.966;2024-02-16T01:46:33;94477.66;;;0.51;72.05
10079;BME280;5078;42.544;22.966;2024-02-16T01:49:01;94473.53;;;0.43;71.66
10079;BME280;5078;42.544;22.966;2024-02-16T01:51:28;94472.94;;;0.41;72.35
10079;BME280;5078;42.544;22.966;2024-02-16T01:53:55;94470.56;;;0.53;71.87
10079;BME280;5078;42.544;22.966;2024-02-16T01:56:22;94474.66;;;0.67;71.56
10079;BME280;5078;42.544;22.966;2024-02-16T01:58:50;94471.91;;;0.69;70.75
10079;BME280;5078;42.544;22.966;2024-02-16T02:01:17;94470.31;;;0.81;70.96
10079;BME280;5078;42.544;22.966;2024-02-16T02:03:43;94473.72;;;0.48;71.29
10079;BME280;5078;42.544;22.966;2024-02-16T02:06:10;94468.22;;;0.58;70.56
10079;BME280;5078;42.544;22.966;2024-02-16T02:08:36;94461.91;;;0.61;70.73
10079;BME280;5078;42.544;22.966;2024-02-16T02:11:03;94463.72;;;0.54;70.72
10079;BME280;5078;42.544;22.966;2024-02-16T02:13:30;94470.81;;;0.19;72.49
10079;BME280;5078;42.544;22.966;2024-02-16T02:16:00;94467.66;;;0.36;71.99
10079;BME280;5078;42.544;22.966;2024-02-16T02:18:29;94464.91;;;0.38;71.94
10079;BME280;5078;42.544;22.966;2024-02-16T02:20:56;94464.09;;;0.57;71.47
10079;BME280;5078;42.544;22.966;2024-02-16T02:23:24;94467.63;;;0.56;71.19
10079;BME280;5078;42.544;22.966;2024-02-16T02:25:51;94473.09;;;0.66;71.30
10079;BME280;5078;42.544;22.966;2024-02-16T02:28:18;94466.22;;;0.67;71.04
10079;BME280;5078;42.544;22.966;2024-02-16T02:30:45;94461.13;;;0.67;70.68
10079;BME280;5078;42.544;22.966;2024-02-16T02:33:12;94462.94;;;0.46;70.61
10079;BME280;5078;42.544;22.966;2024-02-16T02:35:39;94459.63;;;0.26;71.04
10079;BME280;5078;42.544;22.966;2024-02-16T02:38:05;94465.13;;;0.23;71.81
10079;BME280;5078;42.544;22.966;2024-02-16T02:40:33;94475.31;;;-0.03;71.94
10079;BME280;5078;42.544;22.966;2024-02-16T02:43:00;94474.31;;;-0.22;72.94
10079;BME280;5078;42.544;22.966;2024-02-16T02:45:27;94474.94;;;-0.20;72.72
10079;BME280;5078;42.544;22.966;2024-02-16T02:47:53;94464.69;;;-0.46;73.65
10079;BME280;5078;42.544;22.966;2024-02-16T02:50:20;94474.31;;;-0.35;73.54
10079;BME280;5078;42.544;22.966;2024-02-16T02:52:47;94478.41;;;-0.47;74.33
10079;BME280;5078;42.544;22.966;2024-02-16T02:55:13;94473.72;;;-0.37;73.60
10079;BME280;5078;42.544;22.966;2024-02-16T02:57:41;94459.22;;;-0.50;73.58
10079;BME280;5078;42.544;22.966;2024-02-16T03:00:09;94476.47;;;-0.38;73.45
10079;BME280;5078;42.544;22.966;2024-02-16T03:02:37;94474.69;;;-0.51;73.63
10079;BME280;5078;42.544;22.966;2024-02-16T03:05:05;94475.28;;;-0.36;73.41
10079;BME280;5078;42.544;22.966;2024-02-16T03:07:32;94472.78;;;-0.23;73.18
10079;BME280;5078;42.544;22.966;2024-02-16T03:09:59;94471.78;;;-0.22;72.64
10079;BME280;5078;42.544;22.966;2024-02-16T03:12:25;94475.28;;;-0.36;72.85
10079;BME280;5078;42.544;22.966;2024-02-16T03:14:54;94470.34;;;-0.64;74.47
10079;BME280;5078;42.544;22.966;2024-02-16T03:17:21;94457.50;;;-1.03;75.27
10079;BME280;5078;42.544;22.966;2024-02-16T03:19:48;94479.88;;;-0.85;75.32
10079;BME280;5078;42.544;22.966;2024-02-16T03:22:14;94481.00;;;-0.94;75.56
10079;BME280;5078;42.544;22.966;2024-02-16T03:24:41;94482.03;;;-0.89;75.52
10079;BME280;5078;42.544;22.966;2024-02-16T03:27:10;94479.28;;;-0.81;75.03
10079;BME280;5078;42.544;22.966;2024-02-16T03:29:37;94473.25;;;-0.73;75.27
10079;BME280;5078;42.544;22.966;2024-02-16T03:32:05;94476.97;;;-0.76;75.13
10079;BME280;5078;42.544;22.966;2024-02-16T03:34:31;94475.47;;;-0.51;74.28
10079;BME280;5078;42.544;22.966;2024-02-16T03:36:58;94478.22;;;-0.32;74.01
10079;BME280;5078;42.544;22.966;2024-02-16T03:39:25;94476.47;;;-0.32;73.65
10079;BME280;5078;42.544;22.966;2024-02-16T03:41:51;94477.25;;;-0.18;72.67
10079;BME280;5078;42.544;22.966;2024-02-16T03:44:18;94475.69;;;-0.32;72.97
10079;BME280;5078;42.544;22.966;2024-02-16T03:46:45;94472.91;;;-0.44;73.48
10079;BME280;5078;42.544;22.966;2024-02-16T03:49:13;94470.94;;;-0.62;74.57
10079;BME280;5078;42.544;22.966;2024-02-16T03:51:39;94465.03;;;-0.82;75.40
10079;BME280;5078;42.544;22.966;2024-02-16T03:54:06;94473.88;;;-0.58;75.23
10079;BME280;5078;42.544;22.966;2024-02-16T03:56:33;94475.69;;;-0.32;74.91
10079;BME280;5078;42.544;22.966;2024-02-16T03:58:59;94480.03;;;-0.13;74.39
10079;BME280;5078;42.544;22.966;2024-02-16T04:01:26;94486.69;;;0.01;73.63
10079;BME280;5078;42.544;22.966;2024-02-16T04:03:53;94481.41;;;0.16;72.84
10079;BME280;5078;42.544;22.966;2024-02-16T04:06:21;94460.63;;;0.12;72.02
10079;BME280;5078;42.544;22.966;2024-02-16T04:08:47;94478.66;;;0.30;72.25
10079;BME280;5078;42.544;22.966;2024-02-16T04:11:14;94480.25;;;0.18;71.76
10079;BME280;5078;42.544;22.966;2024-02-16T04:13:41;94479.84;;;-0.12;72.84
10079;BME280;5078;42.544;22.966;2024-02-16T04:16:08;94477.69;;;0.05;72.74
10079;BME280;5078;42.544;22.966;2024-02-16T04:18:34;94478.66;;;-0.22;73.36
10079;BME280;5078;42.544;22.966;2024-02-16T04:21:01;94482.34;;;-0.44;73.70
10079;BME280;5078;42.544;22.966;2024-02-16T04:23:29;94480.78;;;-0.39;73.36
10079;BME280;5078;42.544;22.966;2024-02-16T04:25:56;94488.63;;;-0.34;74.13
10079;BME280;5078;42.544;22.966;2024-02-16T04:28:23;94490.78;;;-0.31;73.01
10079;BME280;5078;42.544;22.966;2024-02-16T04:30:49;94486.88;;;-0.20;72.34
10079;BME280;5078;42.544;22.966;2024-02-16T04:33:16;94492.94;;;-0.21;73.94
10079;BME280;5078;42.544;22.966;2024-02-16T04:35:43;94490.34;;;-0.61;73.83
10079;BME280;5078;42.544;22.966;2024-02-16T04:38:12;94487.63;;;-0.46;73.38
10079;BME280;5078;42.544;22.966;2024-02-16T04:40:40;94487.25;;;-0.36;72.73
10079;BME280;5078;42.544;22.966;2024-02-16T04:43:07;94496.41;;;-0.62;74.02
10079;BME280;5078;42.544;22.966;2024-02-16T04:45:34;94489.88;;;-0.77;74.00
10079;BME280;5078;42.544;22.966;2024-02-16T04:48:05;94481.34;;;-0.57;73.12
10079;BME280;5078;42.544;22.966;2024-02-16T04:50:33;94485.78;;;-0.72;75.56
10079;BME280;5078;42.544;22.966;2024-02-16T04:53:00;94490.47;;;-0.82;74.45
10079;BME280;5078;42.544;22.966;2024-02-16T04:55:28;94495.75;;;-1.24;74.96
10079;BME280;5078;42.544;22.966;2024-02-16T04:57:56;94496.06;;;-1.00;74.53
10079;BME280;5078;42.544;22.966;2024-02-16T05:00:23;94501.38;;;-0.94;75.28
10079;BME280;5078;42.544;22.966;2024-02-16T05:02:50;94482.63;;;-1.62;75.61
10079;BME280;5078;42.544;22.966;2024-02-16T05:05:18;94501.72;;;-1.45;75.24
10079;BME280;5078;42.544;22.966;2024-02-16T05:07:47;94498.56;;;-1.47;74.02
10079;BME280;5078;42.544;22.966;2024-02-16T05:10:14;94508.34;;;-1.44;73.96
10079;BME280;5078;42.544;22.966;2024-02-16T05:12:41;94512.75;;;-1.31;73.26
10079;BME280;5078;42.544;22.966;2024-02-16T05:15:09;94511.84;;;-1.52;77.08
10079;BME280;5078;42.544;22.966;2024-02-16T05:17:38;94520.41;;;-1.80;78.50
10079;BME280;5078;42.544;22.966;2024-02-16T05:20:09;94521.59;;;-1.83;77.89
10079;BME280;5078;42.544;22.966;2024-02-16T05:22:41;94524.84;;;-1.68;77.19
10079;BME280;5078;42.544;22.966;2024-02-16T05:25:08;94524.16;;;-1.76;77.71
10079;BME280;5078;42.544;22.966;2024-02-16T05:27:35;94516.91;;;-1.79;77.75
10079;BME280;5078;42.544;22.966;2024-02-16T05:30:03;94498.22;;;-2.00;77.55
10079;BME280;5078;42.544;22.966;2024-02-16T05:32:34;94514.78;;;-1.76;77.33
10079;BME280;5078;42.544;22.966;2024-02-16T05:35:02;94525.78;;;-1.69;77.34
10079;BME280;5078;42.544;22.966;2024-02-16T05:37:30;94522.56;;;-1.56;77.11
10079;BME280;5078;42.544;22.966;2024-02-16T05:39:57;94522.66;;;-1.36;76.18
10079;BME280;5078;42.544;22.966;2024-02-16T05:42:33;94529.38;;;-1.29;75.45
10079;BME280;5078;42.544;22.966;2024-02-16T05:45:00;94518.31;;;-1.49;75.79
10079;BME280;5078;42.544;22.966;2024-02-16T05:47:27;94532.50;;;-1.33;75.40
10079;BME280;5078;42.544;22.966;2024-02-16T05:49:56;94533.19;;;-1.46;75.01
10079;BME280;5078;42.544;22.966;2024-02-16T05:52:24;94531.69;;;-1.40;74.81
10079;BME280;5078;42.544;22.966;2024-02-16T05:54:51;94539.38;;;-1.27;74.78
10079;BME280;5078;42.544;22.966;2024-02-16T05:57:18;94539.53;;;-1.63;75.09
10079;BME280;5078;42.544;22.966;2024-02-16T05:59:45;94538.69;;;-1.42;74.96
10079;BME280;5078;42.544;22.966;2024-02-16T06:02:12;94538.59;;;-1.28;74.12
10079;BME280;5078;42.544;22.966;2024-02-16T06:04:38;94550.53;;;-1.22;76.74
10079;BME280;5078;42.544;22.966;2024-02-16T06:07:06;94536.22;;;-0.88;76.29
10079;BME280;5078;42.544;22.966;2024-02-16T06:09:33;94537.34;;;-0.57;75.30
10079;BME280;5078;42.544;22.966;2024-02-16T06:12:01;94534.88;;;-0.24;73.93
10079;BME280;5078;42.544;22.966;2024-02-16T06:14:30;94519.81;;;-0.06;72.25
10079;BME280;5078;42.544;22.966;2024-02-16T06:16:56;94535.31;;;0.19;71.00
10079;BME280;5078;42.544;22.966;2024-02-16T06:19:23;94542.19;;;0.06;71.13
10079;BME280;5078;42.544;22.966;2024-02-16T06:21:50;94541.22;;;0.39;71.20
10079;BME280;5078;42.544;22.966;2024-02-16T06:24:18;94543.19;;;0.51;69.14
10079;BME280;5078;42.544;22.966;2024-02-16T06:26:45;94541.41;;;0.44;69.56
10079;BME280;5078;42.544;22.966;2024-02-16T06:29:12;94538.16;;;1.08;67.48
10079;BME280;5078;42.544;22.966;2024-02-16T06:31:39;94541.91;;;0.92;67.83
10079;BME280;5078;42.544;22.966;2024-02-16T06:34:05;94538.88;;;1.35;66.74
10079;BME280;5078;42.544;22.966;2024-02-16T06:36:33;94535.91;;;1.76;65.07
10079;BME280;5078;42.544;22.966;2024-02-16T06:39:00;94543.28;;;2.22;64.16
10079;BME280;5078;42.544;22.966;2024-02-16T06:41:28;94501.19;;;2.24;62.96
10079;BME280;5078;42.544;22.966;2024-02-16T06:43:55;94540.84;;;2.09;64.15
10079;BME280;5078;42.544;22.966;2024-02-16T06:46:22;94549.47;;;2.39;63.33
10079;BME280;5078;42.544;22.966;2024-02-16T06:48:50;94544.66;;;2.74;61.82
10079;BME280;5078;42.544;22.966;2024-02-16T06:51:17;94543.47;;;2.52;61.39
10079;BME280;5078;42.544;22.966;2024-02-16T06:53:44;94541.38;;;2.42;61.91
10079;BME280;5078;42.544;22.966;2024-02-16T06:56:10;94535.91;;;2.38;62.18
10079;BME280;5078;42.544;22.966;2024-02-16T06:58:38;94536.66;;;2.64;60.95
10079;BME280;5078;42.544;22.966;2024-02-16T07:01:05;94543.44;;;2.58;61.94
10079;BME280;5078;42.544;22.966;2024-02-16T07:03:33;94535.94;;;2.57;60.97
10079;BME280;5078;42.544;22.966;2024-02-16T07:06:02;94539.06;;;3.02;61.57
10079;BME280;5078;42.544;22.966;2024-02-16T07:08:29;94528.63;;;3.99;58.01
10079;BME280;5078;42.544;22.966;2024-02-16T07:10:55;94534.75;;;4.39;56.67
10079;BME280;5078;42.544;22.966;2024-02-16T07:13:22;94538.91;;;4.11;56.46
10079;BME280;5078;42.544;22.966;2024-02-16T07:15:50;94539.66;;;3.70;58.01
10079;BME280;5078;42.544;22.966;2024-02-16T07:18:17;94542.47;;;4.39;57.10
10079;BME280;5078;42.544;22.966;2024-02-16T07:20:43;94540.47;;;5.00;54.77
10079;BME280;5078;42.544;22.966;2024-02-16T07:23:10;94540.91;;;4.85;54.64
10079;BME280;5078;42.544;22.966;2024-02-16T07:25:37;94538.84;;;5.33;54.00
10079;BME280;5078;42.544;22.966;2024-02-16T07:28:04;94534.53;;;5.22;54.90
10079;BME280;5078;42.544;22.966;2024-02-16T07:30:31;94540.84;;;6.11;51.83
10079;BME280;5078;42.544;22.966;2024-02-16T07:32:59;94536.41;;;5.67;52.87
10079;BME280;5078;42.544;22.966;2024-02-16T07:35:26;94549.81;;;6.70;50.42
10079;BME280;5078;42.544;22.966;2024-02-16T07:37:52;94548.38;;;6.96;50.41
10079;BME280;5078;42.544;22.966;2024-02-16T07:40:19;94545.50;;;6.26;50.54
10079;BME280;5078;42.544;22.966;2024-02-16T07:42:46;94549.59;;;6.72;49.44
10079;BME280;5078;42.544;22.966;2024-02-16T07:45:13;94536.69;;;6.55;49.96
10079;BME280;5078;42.544;22.966;2024-02-16T07:47:41;94542.22;;;6.97;49.61
10079;BME280;5078;42.544;22.966;2024-02-16T07:50:09;94542.66;;;7.11;50.57
10079;BME280;5078;42.544;22.966;2024-02-16T07:52:38;94535.53;;;7.61;49.19
10079;BME280;5078;42.544;22.966;2024-02-16T07:55:05;94542.13;;;6.92;50.93
10079;BME280;5078;42.544;22.966;2024-02-16T07:57:32;94534.41;;;7.30;49.84
10079;BME280;5078;42.544;22.966;2024-02-16T07:59:59;94540.97;;;7.00;51.57
10079;BME280;5078;42.544;22.966;2024-02-16T08:02:25;94544.66;;;6.70;52.52
10079;BME280;5078;42.544;22.966;2024-02-16T08:04:52;94542.88;;;7.48;50.14
10079;BME280;5078;42.544;22.966;2024-02-16T08:07:20;94533.09;;;7.98;48.82
10079;BME280;5078;42.544;22.966;2024-02-16T08:09:47;94537.66;;;8.13;48.77
10079;BME280;5078;42.544;22.966;2024-02-16T08:12:14;94533.63;;;7.30;49.91
10079;BME280;5078;42.544;22.966;2024-02-16T08:14:41;94538.41;;;8.35;47.63
10079;BME280;5078;42.544;22.966;2024-02-16T08:17:08;94535.38;;;8.43;47.10
10079;BME280;5078;42.544;22.966;2024-02-16T08:19:37;94538.53;;;8.50;48.30
10079;BME280;5078;42.544;22.966;2024-02-16T08:22:05;94540.09;;;8.51;48.42
10079;BME280;5078;42.544;22.966;2024-02-16T08:24:33;94545.63;;;8.33;48.44
10079;BME280;5078;42.544;22.966;2024-02-16T08:27:00;94541.34;;;8.75;47.17
10079;BME280;5078;42.544;22.966;2024-02-16T08:29:26;94541.00;;;9.04;46.88
10079;BME280;5078;42.544;22.966;2024-02-16T08:31:54;94535.78;;;8.99;46.95
10079;BME280;5078;42.544;22.966;2024-02-16T08:34:21;94538.91;;;9.48;45.76
10079;BME280;5078;42.544;22.966;2024-02-16T08:36:49;94536.91;;;9.60;45.42
10079;BME280;5078;42.544;22.966;2024-02-16T08:39:17;94542.00;;;9.03;46.85
10079;BME280;5078;42.544;22.966;2024-02-16T08:41:46;94512.78;;;9.02;46.51
10079;BME280;5078;42.544;22.966;2024-02-16T08:44:14;94530.75;;;9.81;44.19
10079;BME280;5078;42.544;22.966;2024-02-16T08:46:40;94532.22;;;10.49;42.65
10079;BME280;5078;42.544;22.966;2024-02-16T08:49:07;94534.78;;;10.34;43.26
10079;BME280;5078;42.544;22.966;2024-02-16T08:51:35;94531.16;;;9.53;44.81
10079;BME280;5078;42.544;22.966;2024-02-16T08:54:02;94527.44;;;10.06;43.50
10079;BME280;5078;42.544;22.966;2024-02-16T08:56:30;94531.41;;;10.44;42.36
10079;BME280;5078;42.544;22.966;2024-02-16T08:58:58;94536.34;;;10.45;42.29
10079;BME280;5078;42.544;22.966;2024-02-16T09:01:31;94534.03;;;10.69;41.81
10079;BME280;5078;42.544;22.966;2024-02-16T09:03:58;94529.50;;;11.35;40.52
10079;BME280;5078;42.544;22.966;2024-02-16T09:06:25;94528.06;;;10.94;41.24
10079;BME280;5078;42.544;22.966;2024-02-16T09:08:52;94527.53;;;11.91;39.21
10079;BME280;5078;42.544;22.966;2024-02-16T09:11:19;94529.53;;;12.04;39.21
10079;BME280;5078;42.544;22.966;2024-02-16T09:13:45;94536.50;;;11.45;39.68
10079;BME280;5078;42.544;22.966;2024-02-16T09:16:13;94540.22;;;10.22;42.81
10079;BME280;5078;42.544;22.966;2024-02-16T09:18:40;94545.41;;;10.83;41.60
10079;BME280;5078;42.544;22.966;2024-02-16T09:21:07;94538.13;;;11.20;41.87
10079;BME280;5078;42.544;22.966;2024-02-16T09:23:35;94538.41;;;11.14;41.60
10079;BME280;5078;42.544;22.966;2024-02-16T09:26:02;94530.22;;;11.71;39.98
10079;BME280;5078;42.544;22.966;2024-02-16T09:28:29;94530.94;;;11.82;39.61
10079;BME280;5078;42.544;22.966;2024-02-16T09:30:56;94527.06;;;12.28;38.51
10079;BME280;5078;42.544;22.966;2024-02-16T09:33:24;94529.16;;;12.26;38.78
10079;BME280;5078;42.544;22.966;2024-02-16T09:35:52;94525.50;;;11.78;39.93
10079;BME280;5078;42.544;22.966;2024-02-16T09:38:18;94522.91;;;11.78;40.21
10079;BME280;5078;42.544;22.966;2024-02-16T09:40:45;94524.50;;;11.74;40.99
10079;BME280;5078;42.544;22.966;2024-02-16T09:43:23;94518.56;;;12.12;38.87
10079;BME280;5078;42.544;22.966;2024-02-16T09:45:52;94515.19;;;12.51;38.28
10079;BME280;5078;42.544;22.966;2024-02-16T09:48:19;94516.47;;;12.87;37.51
10079;BME280;5078;42.544;22.966;2024-02-16T09:50:48;94504.88;;;13.03;36.50
10079;BME280;5078;42.544;22.966;2024-02-16T09:53:17;94508.44;;;12.84;36.46
10079;BME280;5078;42.544;22.966;2024-02-16T09:55:47;94506.47;;;12.99;36.55
10079;BME280;5078;42.544;22.966;2024-02-16T09:58:15;94502.88;;;12.61;37.21
10079;BME280;5078;42.544;22.966;2024-02-16T10:00:48;94500.00;;;12.29;38.44
10079;BME280;5078;42.544;22.966;2024-02-16T10:03:22;94493.38;;;13.09;36.07
10079;BME280;5078;42.544;22.966;2024-02-16T10:05:50;94497.19;;;13.64;35.80
10079;BME280;5078;42.544;22.966;2024-02-16T10:08:17;94493.25;;;13.48;35.79
10079;BME280;5078;42.544;22.966;2024-02-16T10:10:44;94491.69;;;13.47;35.01
10079;BME280;5078;42.544;22.966;2024-02-16T10:13:10;94492.34;;;13.05;35.71
10079;BME280;5078;42.544;22.966;2024-02-16T10:15:37;94487.63;;;12.84;36.35
10079;BME280;5078;42.544;22.966;2024-02-16T10:18:05;94466.56;;;12.51;36.35
10079;BME280;5078;42.544;22.966;2024-02-16T10:20:33;94488.97;;;12.76;35.86
10079;BME280;5078;42.544;22.966;2024-02-16T10:23:05;94469.03;;;13.24;35.48
10079;BME280;5078;42.544;22.966;2024-02-16T10:25:33;94479.25;;;12.87;34.97
10079;BME280;5078;42.544;22.966;2024-02-16T10:28:03;94474.47;;;12.70;36.05
10079;BME280;5078;42.544;22.966;2024-02-16T10:30:34;94469.03;;;13.48;34.39
10079;BME280;5078;42.544;22.966;2024-02-16T10:33:02;94464.41;;;13.40;34.43
10079;BME280;5078;42.544;22.966;2024-02-16T10:35:29;94469.47;;;13.31;34.74
10079;BME280;5078;42.544;22.966;2024-02-16T10:37:56;94455.13;;;13.76;35.19
10079;BME280;5078;42.544;22.966;2024-02-16T10:40:26;94458.88;;;13.89;33.37
10079;BME280;5078;42.544;22.966;2024-02-16T10:42:53;94456.25;;;14.07;34.03
10079;BME280;5078;42.544;22.966;2024-02-16T10:45:20;94453.53;;;13.56;34.41
10079;BME280;5078;42.544;22.966;2024-02-16T10:47:48;94456.06;;;12.61;36.50
10079;BME280;5078;42.544;22.966;2024-02-16T10:50:14;94451.56;;;13.48;35.36
10079;BME280;5078;42.544;22.966;2024-02-16T10:52:43;94451.16;;;14.16;33.39
10079;BME280;5078;42.544;22.966;2024-02-16T10:55:12;94446.28;;;14.28;33.80
10079;BME280;5078;42.544;22.966;2024-02-16T10:57:42;94442.22;;;14.03;33.94
10079;BME280;5078;42.544;22.966;2024-02-16T11:00:09;94444.72;;;14.46;33.27
10079;BME280;5078;42.544;22.966;2024-02-16T11:02:55;94436.44;;;14.44;33.68
10079;BME280;5078;42.544;22.966;2024-02-16T11:05:34;94432.00;;;14.26;32.81
10079;BME280;5078;42.544;22.966;2024-02-16T11:08:02;94439.91;;;14.53;32.96
10079;BME280;5078;42.544;22.966;2024-02-16T11:10:29;94436.34;;;14.49;32.06
10079;BME280;5078;42.544;22.966;2024-02-16T11:13:00;94429.88;;;14.92;31.97
10079;BME280;5078;42.544;22.966;2024-02-16T11:15:28;94432.28;;;14.24;33.29
10079;BME280;5078;42.544;22.966;2024-02-16T11:17:56;94431.94;;;14.63;32.06
10079;BME280;5078;42.544;22.966;2024-02-16T11:20:24;94423.38;;;13.08;35.39
10079;BME280;5078;42.544;22.966;2024-02-16T11:22:51;94426.38;;;13.81;34.57
10079;BME280;5078;42.544;22.966;2024-02-16T11:25:18;94421.38;;;13.00;35.67
10079;BME280;5078;42.544;22.966;2024-02-16T11:27:46;94413.25;;;13.01;36.53
10079;BME280;5078;42.544;22.966;2024-02-16T11:30:15;94413.13;;;13.16;35.61
10079;BME280;5078;42.544;22.966;2024-02-16T11:32:42;94421.00;;;12.59;36.75
10079;BME280;5078;42.544;22.966;2024-02-16T11:35:09;94385.50;;;13.21;36.57
10079;BME280;5078;42.544;22.966;2024-02-16T11:37:36;94401.63;;;13.60;35.98
10079;BME280;5078;42.544;22.966;2024-02-16T11:40:04;94398.50;;;13.82;36.11
10079;BME280;5078;42.544;22.966;2024-02-16T11:42:33;94396.59;;;13.69;34.70
10079;BME280;5078;42.544;22.966;2024-02-16T11:45:00;94404.91;;;13.28;35.78
10079;BME280;5078;42.544;22.966;2024-02-16T11:47:29;94398.69;;;13.48;35.11
10079;BME280;5078;42.544;22.966;2024-02-16T11:50:02;94405.63;;;13.15;35.82
10079;BME280;5078;42.544;22.966;2024-02-16T11:52:29;94404.44;;;13.26;35.46
10079;BME280;5078;42.544;22.966;2024-02-16T11:54:56;94391.72;;;13.43;35.54
10079;BME280;5078;42.544;22.966;2024-02-16T11:57:26;94397.47;;;12.69;36.77
10079;BME280;5078;42.544;22.966;2024-02-16T11:59:53;94394.72;;;13.08;36.23
10079;BME280;5078;42.544;22.966;2024-02-16T12:02:20;94392.41;;;13.30;35.70
10079;BME280;5078;42.544;22.966;2024-02-16T12:04:57;94388.88;;;13.21;35.74
10079;BME280;5078;42.544;22.966;2024-02-16T12:07:25;94352.66;;;12.25;36.95
10079;BME280;5078;42.544;22.966;2024-02-16T12:09:56;94392.69;;;12.81;36.44
10079;BME280;5078;42.544;22.966;2024-02-16T12:12:23;94388.47;;;12.33;37.11
10079;BME280;5078;42.544;22.966;2024-02-16T12:14:50;94387.56;;;12.95;36.48
10079;BME280;5078;42.544;22.966;2024-02-16T12:17:16;94390.50;;;12.36;38.23
10079;BME280;5078;42.544;22.966;2024-02-16T12:19:43;94389.59;;;12.50;37.61
10079;BME280;5078;42.544;22.966;2024-02-16T12:22:16;94384.72;;;12.15;39.44
10079;BME280;5078;42.544;22.966;2024-02-16T12:24:44;94377.03;;;12.00;40.19
10079;BME280;5078;42.544;22.966;2024-02-16T12:27:11;94380.91;;;12.31;39.66
10079;BME280;5078;42.544;22.966;2024-02-16T12:29:38;94384.53;;;12.35;39.23
10079;BME280;5078;42.544;22.966;2024-02-16T12:32:05;94378.88;;;12.28;39.07
10079;BME280;5078;42.544;22.966;2024-02-16T12:34:32;94375.91;;;12.11;39.06
10079;BME280;5078;42.544;22.966;2024-02-16T12:36:59;94369.13;;;12.44;39.72
10079;BME280;5078;42.544;22.966;2024-02-16T12:39:27;94369.91;;;12.68;37.77
10079;BME280;5078;42.544;22.966;2024-02-16T12:41:53;94361.88;;;12.41;38.85
10079;BME280;5078;42.544;22.966;2024-02-16T12:51:16;94364.19;;;12.71;38.61
10079;BME280;5078;42.544;22.966;2024-02-16T12:53:43;94371.31;;;12.84;38.58
10079;BME280;5078;42.544;22.966;2024-02-16T12:56:11;94368.81;;;12.74;38.88
10079;BME280;5078;42.544;22.966;2024-02-16T12:58:38;94364.38;;;12.51;39.01
10079;BME280;5078;42.544;22.966;2024-02-16T13:01:05;94362.31;;;12.48;38.78
10079;BME280;5078;42.544;22.966;2024-02-16T13:03:33;94367.69;;;12.28;39.89
10079;BME280;5078;42.544;22.966;2024-02-16T13:06:00;94368.91;;;12.64;39.48
10079;BME280;5078;42.544;22.966;2024-02-16T13:08:27;94365.06;;;12.56;39.00
10079;BME280;5078;42.544;22.966;2024-02-16T13:10:55;94372.13;;;12.27;39.89
10079;BME280;5078;42.544;22.966;2024-02-16T13:13:23;94367.34;;;12.10;40.57